sensor_id;sensor_type;location;lat;lon;timestamp;temperature;humidity
67050;DHT22;53955;52.442;13.284;2023-05-27T00:01:11;16.40;39.90
67050;DHT22;53955;52.442;13.284;2023-05-27T00:03:39;16.40;39.10
67050;DHT22;53955;52.442;13.284;2023-05-27T00:06:06;16.30;40.00
67050;DHT22;53955;52.442;13.284;2023-05-27T00:08:33;16.40;40.10
67050;DHT22;53955;52.442;13.284;2023-05-27T00:10:59;16.40;39.90
67050;DHT22;53955;52.442;13.284;2023-05-27T00:13:26;16.40;39.50
67050;DHT22;53955;52.442;13.284;2023-05-27T00:15:53;16.30;40.00
67050;DHT22;53955;52.442;13.284;2023-05-27T00:18:19;16.40;39.90
67050;DHT22;53955;52.442;13.284;2023-05-27T00:20:47;16.40;40.00
67050;DHT22;53955;52.442;13.284;2023-05-27T00:23:14;16.40;39.90
67050;DHT22;53955;52.442;13.284;2023-05-27T00:25:41;16.30;40.20
67050;DHT22;53955;52.442;13.284;2023-05-27T00:28:08;16.20;40.30
67050;DHT22;53955;52.442;13.284;2023-05-27T00:30:36;16.20;40.20
67050;DHT22;53955;52.442;13.284;2023-05-27T00:33:03;16.20;40.20
67050;DHT22;53955;52.442;13.284;2023-05-27T00:35:29;16.20;40.80
67050;DHT22;53955;52.442;13.284;2023-05-27T00:37:57;16.10;40.80
67050;DHT22;53955;52.442;13.284;2023-05-27T00:40:26;16.10;40.80
67050;DHT22;53955;52.442;13.284;2023-05-27T00:42:56;16.00;41.40
67050;DHT22;53955;52.442;13.284;2023-05-27T00:45:22;15.90;41.80
67050;DHT22;53955;52.442;13.284;2023-05-27T00:47:50;16.00;40.90
67050;DHT22;53955;52.442;13.284;2023-05-27T00:50:17;16.00;41.70
67050;DHT22;53955;52.442;13.284;2023-05-27T00:52:44;15.90;41.40
67050;DHT22;53955;52.442;13.284;2023-05-27T00:55:12;15.80;42.10
67050;DHT22;53955;52.442;13.284;2023-05-27T00:57:39;15.90;42.20
67050;DHT22;53955;52.442;13.284;2023-05-27T01:00:08;15.90;41.70
67050;DHT22;53955;52.442;13.284;2023-05-27T01:02:37;15.90;42.00
67050;DHT22;53955;52.442;13.284;2023-05-27T01:05:07;15.80;42.10
67050;DHT22;53955;52.442;13.284;2023-05-27T01:07:40;15.80;42.10
67050;DHT22;53955;52.442;13.284;2023-05-27T01:10:13;15.80;42.60
67050;DHT22;53955;52.442;13.284;2023-05-27T01:12:49;15.70;42.50
67050;DHT22;53955;52.442;13.284;2023-05-27T01:15:18;15.70;42.80
67050;DHT22;53955;52.442;13.284;2023-05-27T01:17:46;15.60;43.50
67050;DHT22;53955;52.442;13.284;2023-05-27T01:20:14;15.50;43.30
67050;DHT22;53955;52.442;13.284;2023-05-27T01:22:43;15.40;44.50
67050;DHT22;53955;52.442;13.284;2023-05-27T01:25:10;15.40;44.30
67050;DHT22;53955;52.442;13.284;2023-05-27T01:27:37;15.40;45.20
67050;DHT22;53955;52.442;13.284;2023-05-27T01:30:06;15.40;45.00
67050;DHT22;53955;52.442;13.284;2023-05-27T01:32:39;15.40;44.10
67050;DHT22;53955;52.442;13.284;2023-05-27T01:35:12;15.40;45.20
67050;DHT22;53955;52.442;13.284;2023-05-27T01:37:43;15.40;45.90
67050;DHT22;53955;52.442;13.284;2023-05-27T01:40:12;15.40;45.70
67050;DHT22;53955;52.442;13.284;2023-05-27T01:42:40;15.30;45.60
67050;DHT22;53955;52.442;13.284;2023-05-27T01:45:09;15.30;46.20
67050;DHT22;53955;52.442;13.284;2023-05-27T01:47:36;15.10;45.90
67050;DHT22;53955;52.442;13.284;2023-05-27T01:50:03;15.10;46.30
67050;DHT22;53955;52.442;13.284;2023-05-27T01:52:30;15.10;46.10
67050;DHT22;53955;52.442;13.284;2023-05-27T01:54:58;15.00;46.80
67050;DHT22;53955;52.442;13.284;2023-05-27T01:57:25;15.00;46.60
67050;DHT22;53955;52.442;13.284;2023-05-27T01:59:52;15.00;46.50
67050;DHT22;53955;52.442;13.284;2023-05-27T02:02:18;14.80;47.20
67050;DHT22;53955;52.442;13.284;2023-05-27T02:04:45;14.80;47.20
67050;DHT22;53955;52.442;13.284;2023-05-27T02:07:11;14.80;47.20
67050;DHT22;53955;52.442;13.284;2023-05-27T02:09:38;14.80;47.70
67050;DHT22;53955;52.442;13.284;2023-05-27T02:12:06;14.70;47.20
67050;DHT22;53955;52.442;13.284;2023-05-27T02:14:33;14.70;47.50
67050;DHT22;53955;52.442;13.284;2023-05-27T02:17:04;14.60;47.90
67050;DHT22;53955;52.442;13.284;2023-05-27T02:19:30;14.60;48.00
67050;DHT22;53955;52.442;13.284;2023-05-27T02:21:57;14.50;48.80
67050;DHT22;53955;52.442;13.284;2023-05-27T02:24:23;14.40;49.00
67050;DHT22;53955;52.442;13.284;2023-05-27T02:26:50;14.50;48.90
67050;DHT22;53955;52.442;13.284;2023-05-27T02:29:18;14.40;48.60
67050;DHT22;53955;52.442;13.284;2023-05-27T02:31:44;14.40;48.70
67050;DHT22;53955;52.442;13.284;2023-05-27T02:34:11;14.40;49.10
67050;DHT22;53955;52.442;13.284;2023-05-27T02:36:38;14.40;48.60
67050;DHT22;53955;52.442;13.284;2023-05-27T02:39:04;14.40;49.00
67050;DHT22;53955;52.442;13.284;2023-05-27T02:41:31;14.40;49.20
67050;DHT22;53955;52.442;13.284;2023-05-27T02:43:57;14.50;49.50
67050;DHT22;53955;52.442;13.284;2023-05-27T02:46:25;14.50;48.50
67050;DHT22;53955;52.442;13.284;2023-05-27T02:48:52;14.60;48.90
67050;DHT22;53955;52.442;13.284;2023-05-27T02:51:18;14.60;49.40
67050;DHT22;53955;52.442;13.284;2023-05-27T02:53:45;14.50;48.90
67050;DHT22;53955;52.442;13.284;2023-05-27T02:56:11;14.50;48.70
67050;DHT22;53955;52.442;13.284;2023-05-27T02:58:38;14.50;49.00
67050;DHT22;53955;52.442;13.284;2023-05-27T03:01:05;14.40;48.30
67050;DHT22;53955;52.442;13.284;2023-05-27T03:03:32;14.50;48.50
67050;DHT22;53955;52.442;13.284;2023-05-27T03:05:59;14.50;48.90
67050;DHT22;53955;52.442;13.284;2023-05-27T03:08:26;14.50;48.40
67050;DHT22;53955;52.442;13.284;2023-05-27T03:10:52;14.50;48.70
67050;DHT22;53955;52.442;13.284;2023-05-27T03:13:19;14.50;48.50
67050;DHT22;53955;52.442;13.284;2023-05-27T03:15:45;14.30;48.60
67050;DHT22;53955;52.442;13.284;2023-05-27T03:18:12;14.30;48.00
67050;DHT22;53955;52.442;13.284;2023-05-27T03:20:40;14.20;48.60
67050;DHT22;53955;52.442;13.284;2023-05-27T03:23:07;14.30;49.10
67050;DHT22;53955;52.442;13.284;2023-05-27T03:25:34;14.40;48.80
67050;DHT22;53955;52.442;13.284;2023-05-27T03:28:00;14.40;48.90
67050;DHT22;53955;52.442;13.284;2023-05-27T03:30:27;14.50;47.90
67050;DHT22;53955;52.442;13.284;2023-05-27T03:32:53;14.60;48.00
67050;DHT22;53955;52.442;13.284;2023-05-27T03:35:20;14.50;47.80
67050;DHT22;53955;52.442;13.284;2023-05-27T03:37:48;14.50;47.70
67050;DHT22;53955;52.442;13.284;2023-05-27T03:40:14;14.40;48.40
67050;DHT22;53955;52.442;13.284;2023-05-27T03:42:41;14.30;48.20
67050;DHT22;53955;52.442;13.284;2023-05-27T03:45:08;14.30;48.60
67050;DHT22;53955;52.442;13.284;2023-05-27T03:47:35;14.40;48.40
67050;DHT22;53955;52.442;13.284;2023-05-27T03:50:01;14.40;48.70
67050;DHT22;53955;52.442;13.284;2023-05-27T03:52:28;14.40;49.10
67050;DHT22;53955;52.442;13.284;2023-05-27T03:54:56;14.40;48.30
67050;DHT22;53955;52.442;13.284;2023-05-27T03:57:23;14.40;48.70
67050;DHT22;53955;52.442;13.284;2023-05-27T03:59:49;14.60;48.10
67050;DHT22;53955;52.442;13.284;2023-05-27T04:02:16;14.60;48.60
67050;DHT22;53955;52.442;13.284;2023-05-27T04:04:42;14.80;48.30
67050;DHT22;53955;52.442;13.284;2023-05-27T04:07:09;14.90;48.60
67050;DHT22;53955;52.442;13.284;2023-05-27T04:09:38;15.10;47.30
67050;DHT22;53955;52.442;13.284;2023-05-27T04:12:06;15.10;47.70
67050;DHT22;53955;52.442;13.284;2023-05-27T04:14:33;15.20;47.80
67050;DHT22;53955;52.442;13.284;2023-05-27T04:17:00;15.30;47.30
67050;DHT22;53955;52.442;13.284;2023-05-27T04:19:27;15.30;47.30
67050;DHT22;53955;52.442;13.284;2023-05-27T04:21:53;15.20;47.30
67050;DHT22;53955;52.442;13.284;2023-05-27T04:24:20;15.30;47.50
67050;DHT22;53955;52.442;13.284;2023-05-27T04:26:46;15.50;46.40
67050;DHT22;53955;52.442;13.284;2023-05-27T04:29:14;15.50;46.70
67050;DHT22;53955;52.442;13.284;2023-05-27T04:31:41;15.70;45.80
67050;DHT22;53955;52.442;13.284;2023-05-27T04:34:08;15.80;45.10
67050;DHT22;53955;52.442;13.284;2023-05-27T04:36:34;16.00;45.50
67050;DHT22;53955;52.442;13.284;2023-05-27T04:39:01;16.20;45.20
67050;DHT22;53955;52.442;13.284;2023-05-27T04:41:28;16.40;44.80
67050;DHT22;53955;52.442;13.284;2023-05-27T04:43:55;16.80;44.10
67050;DHT22;53955;52.442;13.284;2023-05-27T04:46:23;18.00;41.60
67050;DHT22;53955;52.442;13.284;2023-05-27T04:48:50;19.30;36.50
67050;DHT22;53955;52.442;13.284;2023-05-27T04:51:17;20.50;34.20
67050;DHT22;53955;52.442;13.284;2023-05-27T04:53:45;21.70;30.80
67050;DHT22;53955;52.442;13.284;2023-05-27T04:56:13;22.50;29.00
67050;DHT22;53955;52.442;13.284;2023-05-27T04:58:41;23.00;27.40
67050;DHT22;53955;52.442;13.284;2023-05-27T05:01:08;23.70;26.60
67050;DHT22;53955;52.442;13.284;2023-05-27T05:03:43;24.30;24.40
67050;DHT22;53955;52.442;13.284;2023-05-27T05:06:18;24.80;24.20
67050;DHT22;53955;52.442;13.284;2023-05-27T05:08:45;25.40;23.40
67050;DHT22;53955;52.442;13.284;2023-05-27T05:11:12;25.60;22.20
67050;DHT22;53955;52.442;13.284;2023-05-27T05:13:39;26.20;21.20
67050;DHT22;53955;52.442;13.284;2023-05-27T05:16:06;26.20;21.10
67050;DHT22;53955;52.442;13.284;2023-05-27T05:18:32;26.60;20.50
67050;DHT22;53955;52.442;13.284;2023-05-27T05:21:00;27.20;20.20
67050;DHT22;53955;52.442;13.284;2023-05-27T05:23:27;27.70;19.20
67050;DHT22;53955;52.442;13.284;2023-05-27T05:25:53;27.80;19.10
67050;DHT22;53955;52.442;13.284;2023-05-27T05:28:23;28.10;18.40
67050;DHT22;53955;52.442;13.284;2023-05-27T05:30:50;28.20;18.20
67050;DHT22;53955;52.442;13.284;2023-05-27T05:33:16;28.50;17.40
67050;DHT22;53955;52.442;13.284;2023-05-27T05:35:43;28.60;18.10
67050;DHT22;53955;52.442;13.284;2023-05-27T05:38:11;28.80;17.00
67050;DHT22;53955;52.442;13.284;2023-05-27T05:40:37;29.20;16.70
67050;DHT22;53955;52.442;13.284;2023-05-27T05:43:04;29.20;16.90
67050;DHT22;53955;52.442;13.284;2023-05-27T05:45:31;29.30;16.40
67050;DHT22;53955;52.442;13.284;2023-05-27T05:47:57;29.40;16.20
67050;DHT22;53955;52.442;13.284;2023-05-27T05:50:24;29.70;16.00
67050;DHT22;53955;52.442;13.284;2023-05-27T05:52:51;30.40;16.00
67050;DHT22;53955;52.442;13.284;2023-05-27T05:55:19;30.70;14.00
67050;DHT22;53955;52.442;13.284;2023-05-27T05:57:46;31.20;12.80
67050;DHT22;53955;52.442;13.284;2023-05-27T06:00:13;31.70;12.00
67050;DHT22;53955;52.442;13.284;2023-05-27T06:02:40;31.80;12.20
67050;DHT22;53955;52.442;13.284;2023-05-27T06:05:07;32.70;11.20
67050;DHT22;53955;52.442;13.284;2023-05-27T06:07:34;33.10;10.40
67050;DHT22;53955;52.442;13.284;2023-05-27T06:10:01;32.30;10.40
67050;DHT22;53955;52.442;13.284;2023-05-27T06:12:29;32.10;10.30
67050;DHT22;53955;52.442;13.284;2023-05-27T06:14:55;31.40;10.10
67050;DHT22;53955;52.442;13.284;2023-05-27T06:17:22;32.00;9.00
67050;DHT22;53955;52.442;13.284;2023-05-27T06:19:48;31.60;9.50
67050;DHT22;53955;52.442;13.284;2023-05-27T06:22:15;31.20;9.80
67050;DHT22;53955;52.442;13.284;2023-05-27T06:24:42;30.60;11.10
67050;DHT22;53955;52.442;13.284;2023-05-27T06:27:08;30.10;11.70
67050;DHT22;53955;52.442;13.284;2023-05-27T06:29:37;29.40;10.90
67050;DHT22;53955;52.442;13.284;2023-05-27T06:32:03;28.20;11.80
67050;DHT22;53955;52.442;13.284;2023-05-27T06:34:30;27.50;12.30
67050;DHT22;53955;52.442;13.284;2023-05-27T06:36:57;26.90;13.20
67050;DHT22;53955;52.442;13.284;2023-05-27T06:39:23;26.40;13.20
67050;DHT22;53955;52.442;13.284;2023-05-27T06:41:50;26.10;12.80
67050;DHT22;53955;52.442;13.284;2023-05-27T06:44:16;25.70;13.20
67050;DHT22;53955;52.442;13.284;2023-05-27T06:46:45;25.80;14.30
67050;DHT22;53955;52.442;13.284;2023-05-27T06:49:11;25.80;14.30
67050;DHT22;53955;52.442;13.284;2023-05-27T06:51:38;25.80;13.20
67050;DHT22;53955;52.442;13.284;2023-05-27T06:54:04;25.80;12.80
67050;DHT22;53955;52.442;13.284;2023-05-27T06:56:33;25.30;10.20
67050;DHT22;53955;52.442;13.284;2023-05-27T06:59:00;24.80;11.90
67050;DHT22;53955;52.442;13.284;2023-05-27T07:01:26;24.50;11.30
67050;DHT22;53955;52.442;13.284;2023-05-27T07:03:54;24.20;13.00
67050;DHT22;53955;52.442;13.284;2023-05-27T07:06:21;24.00;13.80
67050;DHT22;53955;52.442;13.284;2023-05-27T07:08:47;24.50;13.50
67050;DHT22;53955;52.442;13.284;2023-05-27T07:11:14;24.60;13.00
67050;DHT22;53955;52.442;13.284;2023-05-27T07:13:41;25.00;13.90
67050;DHT22;53955;52.442;13.284;2023-05-27T07:16:08;25.50;13.20
67050;DHT22;53955;52.442;13.284;2023-05-27T07:18:34;25.60;12.40
67050;DHT22;53955;52.442;13.284;2023-05-27T07:21:02;25.60;11.90
67050;DHT22;53955;52.442;13.284;2023-05-27T07:23:29;25.70;11.10
67050;DHT22;53955;52.442;13.284;2023-05-27T07:25:55;25.70;11.20
67050;DHT22;53955;52.442;13.284;2023-05-27T07:28:22;25.70;10.00
67050;DHT22;53955;52.442;13.284;2023-05-27T07:30:49;25.70;10.20
67050;DHT22;53955;52.442;13.284;2023-05-27T07:33:15;25.80;9.00
67050;DHT22;53955;52.442;13.284;2023-05-27T07:35:42;25.60;8.20
67050;DHT22;53955;52.442;13.284;2023-05-27T07:38:10;25.60;7.60
67050;DHT22;53955;52.442;13.284;2023-05-27T07:40:37;25.60;8.00
67050;DHT22;53955;52.442;13.284;2023-05-27T07:43:03;25.30;8.10
67050;DHT22;53955;52.442;13.284;2023-05-27T07:45:30;25.20;9.00
67050;DHT22;53955;52.442;13.284;2023-05-27T07:47:57;24.90;8.90
67050;DHT22;53955;52.442;13.284;2023-05-27T07:50:23;24.90;8.30
67050;DHT22;53955;52.442;13.284;2023-05-27T07:52:50;25.10;9.10
67050;DHT22;53955;52.442;13.284;2023-05-27T07:55:18;25.30;9.20
67050;DHT22;53955;52.442;13.284;2023-05-27T07:57:44;25.30;9.80
67050;DHT22;53955;52.442;13.284;2023-05-27T08:00:12;25.40;9.20
67050;DHT22;53955;52.442;13.284;2023-05-27T08:02:38;25.50;7.30
67050;DHT22;53955;52.442;13.284;2023-05-27T08:05:05;25.70;7.40
67050;DHT22;53955;52.442;13.284;2023-05-27T08:07:35;25.30;5.50
67050;DHT22;53955;52.442;13.284;2023-05-27T08:10:02;24.70;5.40
67050;DHT22;53955;52.442;13.284;2023-05-27T08:12:30;24.50;4.80
67050;DHT22;53955;52.442;13.284;2023-05-27T08:14:58;24.10;5.70
67050;DHT22;53955;52.442;13.284;2023-05-27T08:17:24;24.20;8.50
67050;DHT22;53955;52.442;13.284;2023-05-27T08:19:51;24.10;6.50
67050;DHT22;53955;52.442;13.284;2023-05-27T08:22:17;24.10;6.50
67050;DHT22;53955;52.442;13.284;2023-05-27T08:24:44;24.00;8.40
67050;DHT22;53955;52.442;13.284;2023-05-27T08:27:12;24.40;8.50
67050;DHT22;53955;52.442;13.284;2023-05-27T08:29:41;24.70;7.60
67050;DHT22;53955;52.442;13.284;2023-05-27T08:32:08;24.90;7.60
67050;DHT22;53955;52.442;13.284;2023-05-27T08:34:34;25.10;7.10
67050;DHT22;53955;52.442;13.284;2023-05-27T08:37:01;24.80;5.80
67050;DHT22;53955;52.442;13.284;2023-05-27T08:39:29;24.30;4.80
67050;DHT22;53955;52.442;13.284;2023-05-27T08:41:55;24.20;7.50
67050;DHT22;53955;52.442;13.284;2023-05-27T08:44:22;24.60;6.20
67050;DHT22;53955;52.442;13.284;2023-05-27T08:46:50;25.00;6.30
67050;DHT22;53955;52.442;13.284;2023-05-27T08:49:17;25.30;6.00
67050;DHT22;53955;52.442;13.284;2023-05-27T08:51:44;25.40;5.50
67050;DHT22;53955;52.442;13.284;2023-05-27T08:54:11;25.40;5.50
67050;DHT22;53955;52.442;13.284;2023-05-27T08:56:39;25.20;5.20
67050;DHT22;53955;52.442;13.284;2023-05-27T08:59:06;25.30;4.70
67050;DHT22;53955;52.442;13.284;2023-05-27T09:01:33;25.20;5.70
67050;DHT22;53955;52.442;13.284;2023-05-27T09:04:02;25.10;5.70
67050;DHT22;53955;52.442;13.284;2023-05-27T09:06:28;25.50;7.50
67050;DHT22;53955;52.442;13.284;2023-05-27T09:08:55;25.60;6.30
67050;DHT22;53955;52.442;13.284;2023-05-27T09:11:22;25.90;4.90
67050;DHT22;53955;52.442;13.284;2023-05-27T09:13:49;25.80;2.90
67050;DHT22;53955;52.442;13.284;2023-05-27T09:16:20;25.60;4.10
67050;DHT22;53955;52.442;13.284;2023-05-27T09:18:47;25.60;2.10
67050;DHT22;53955;52.442;13.284;2023-05-27T09:21:14;24.80;3.20
67050;DHT22;53955;52.442;13.284;2023-05-27T09:23:41;24.80;3.30
67050;DHT22;53955;52.442;13.284;2023-05-27T09:26:08;24.80;4.10
67050;DHT22;53955;52.442;13.284;2023-05-27T09:28:35;25.00;5.10
67050;DHT22;53955;52.442;13.284;2023-05-27T09:31:02;25.20;3.80
67050;DHT22;53955;52.442;13.284;2023-05-27T09:33:30;25.30;6.30
67050;DHT22;53955;52.442;13.284;2023-05-27T09:35:57;25.00;3.20
67050;DHT22;53955;52.442;13.284;2023-05-27T09:38:28;25.10;6.20
67050;DHT22;53955;52.442;13.284;2023-05-27T09:40:54;25.30;5.60
67050;DHT22;53955;52.442;13.284;2023-05-27T09:43:21;25.30;6.10
67050;DHT22;53955;52.442;13.284;2023-05-27T09:45:48;25.30;4.60
67050;DHT22;53955;52.442;13.284;2023-05-27T09:48:16;25.20;4.90
67050;DHT22;53955;52.442;13.284;2023-05-27T09:50:44;25.30;4.70
67050;DHT22;53955;52.442;13.284;2023-05-27T09:53:11;25.40;5.80
67050;DHT22;53955;52.442;13.284;2023-05-27T09:55:40;25.50;6.10
67050;DHT22;53955;52.442;13.284;2023-05-27T09:58:07;25.70;6.30
67050;DHT22;53955;52.442;13.284;2023-05-27T10:00:35;25.90;4.80
67050;DHT22;53955;52.442;13.284;2023-05-27T10:03:02;25.50;5.30
67050;DHT22;53955;52.442;13.284;2023-05-27T10:05:31;25.50;7.00
67050;DHT22;53955;52.442;13.284;2023-05-27T10:07:59;25.70;5.30
67050;DHT22;53955;52.442;13.284;2023-05-27T10:10:26;25.50;6.10
67050;DHT22;53955;52.442;13.284;2023-05-27T10:12:55;25.50;6.30
67050;DHT22;53955;52.442;13.284;2023-05-27T10:15:23;25.50;7.40
67050;DHT22;53955;52.442;13.284;2023-05-27T10:17:52;25.40;5.90
67050;DHT22;53955;52.442;13.284;2023-05-27T10:20:23;25.60;7.00
67050;DHT22;53955;52.442;13.284;2023-05-27T10:22:51;25.60;6.90
67050;DHT22;53955;52.442;13.284;2023-05-27T10:25:18;25.60;5.70
67050;DHT22;53955;52.442;13.284;2023-05-27T10:27:45;25.40;4.70
67050;DHT22;53955;52.442;13.284;2023-05-27T10:30:14;25.00;6.10
67050;DHT22;53955;52.442;13.284;2023-05-27T10:32:47;25.10;4.80
67050;DHT22;53955;52.442;13.284;2023-05-27T10:35:15;24.70;5.60
67050;DHT22;53955;52.442;13.284;2023-05-27T10:37:41;24.50;6.30
67050;DHT22;53955;52.442;13.284;2023-05-27T10:40:09;24.70;7.50
67050;DHT22;53955;52.442;13.284;2023-05-27T10:42:36;24.80;6.70
67050;DHT22;53955;52.442;13.284;2023-05-27T10:45:04;25.20;7.20
67050;DHT22;53955;52.442;13.284;2023-05-27T10:47:34;25.40;6.60
67050;DHT22;53955;52.442;13.284;2023-05-27T10:50:10;25.50;7.00
67050;DHT22;53955;52.442;13.284;2023-05-27T10:52:38;25.60;5.10
67050;DHT22;53955;52.442;13.284;2023-05-27T10:55:06;25.50;5.60
67050;DHT22;53955;52.442;13.284;2023-05-27T10:57:33;25.40;6.50
67050;DHT22;53955;52.442;13.284;2023-05-27T11:00:02;25.40;4.80
67050;DHT22;53955;52.442;13.284;2023-05-27T11:02:30;25.30;4.50
67050;DHT22;53955;52.442;13.284;2023-05-27T11:04:59;25.00;4.10
67050;DHT22;53955;52.442;13.284;2023-05-27T11:07:25;24.60;5.70
67050;DHT22;53955;52.442;13.284;2023-05-27T11:09:53;24.60;5.40
67050;DHT22;53955;52.442;13.284;2023-05-27T11:12:21;24.60;5.50
67050;DHT22;53955;52.442;13.284;2023-05-27T11:14:49;24.70;5.70
67050;DHT22;53955;52.442;13.284;2023-05-27T11:17:17;24.90;6.50
67050;DHT22;53955;52.442;13.284;2023-05-27T11:19:44;24.80;3.40
67050;DHT22;53955;52.442;13.284;2023-05-27T11:22:14;24.40;5.10
67050;DHT22;53955;52.442;13.284;2023-05-27T11:24:41;24.70;4.80
67050;DHT22;53955;52.442;13.284;2023-05-27T11:27:08;24.50;6.10
67050;DHT22;53955;52.442;13.284;2023-05-27T11:29:36;24.70;5.90
67050;DHT22;53955;52.442;13.284;2023-05-27T11:32:03;24.90;6.10
67050;DHT22;53955;52.442;13.284;2023-05-27T11:34:33;25.00;7.10
67050;DHT22;53955;52.442;13.284;2023-05-27T11:37:01;25.20;5.10
67050;DHT22;53955;52.442;13.284;2023-05-27T11:39:31;25.20;5.30
67050;DHT22;53955;52.442;13.284;2023-05-27T11:41:58;25.20;4.10
67050;DHT22;53955;52.442;13.284;2023-05-27T11:44:25;25.10;4.70
67050;DHT22;53955;52.442;13.284;2023-05-27T11:46:58;25.20;5.50
67050;DHT22;53955;52.442;13.284;2023-05-27T11:49:25;25.20;5.00
67050;DHT22;53955;52.442;13.284;2023-05-27T11:51:55;25.30;6.80
67050;DHT22;53955;52.442;13.284;2023-05-27T11:54:23;25.30;2.80
67050;DHT22;53955;52.442;13.284;2023-05-27T11:56:52;25.40;4.90
67050;DHT22;53955;52.442;13.284;2023-05-27T11:59:20;25.40;4.50
67050;DHT22;53955;52.442;13.284;2023-05-27T12:01:47;25.40;3.70
67050;DHT22;53955;52.442;13.284;2023-05-27T12:04:17;25.30;3.80
67050;DHT22;53955;52.442;13.284;2023-05-27T12:06:45;25.20;4.30
67050;DHT22;53955;52.442;13.284;2023-05-27T12:09:13;25.00;5.10
67050;DHT22;53955;52.442;13.284;2023-05-27T12:11:40;24.80;3.50
67050;DHT22;53955;52.442;13.284;2023-05-27T12:14:08;24.70;3.10
67050;DHT22;53955;52.442;13.284;2023-05-27T12:16:35;24.60;4.50
67050;DHT22;53955;52.442;13.284;2023-05-27T12:19:01;24.50;6.10
67050;DHT22;53955;52.442;13.284;2023-05-27T12:21:28;24.50;4.00
67050;DHT22;53955;52.442;13.284;2023-05-27T12:23:55;24.70;4.80
67050;DHT22;53955;52.442;13.284;2023-05-27T12:26:21;24.80;5.90
67050;DHT22;53955;52.442;13.284;2023-05-27T12:28:48;24.80;4.90
67050;DHT22;53955;52.442;13.284;2023-05-27T12:31:16;24.80;4.50
67050;DHT22;53955;52.442;13.284;2023-05-27T12:33:43;24.50;6.10
67050;DHT22;53955;52.442;13.284;2023-05-27T12:36:09;24.60;6.90
67050;DHT22;53955;52.442;13.284;2023-05-27T12:38:37;24.80;6.80
67050;DHT22;53955;52.442;13.284;2023-05-27T12:41:03;24.90;7.00
67050;DHT22;53955;52.442;13.284;2023-05-27T12:43:30;25.00;6.20
67050;DHT22;53955;52.442;13.284;2023-05-27T12:45:57;25.20;4.70
67050;DHT22;53955;52.442;13.284;2023-05-27T12:48:26;25.00;5.20
67050;DHT22;53955;52.442;13.284;2023-05-27T12:50:52;24.50;5.70
67050;DHT22;53955;52.442;13.284;2023-05-27T12:53:19;24.40;6.40
67050;DHT22;53955;52.442;13.284;2023-05-27T12:55:45;24.60;6.70
67050;DHT22;53955;52.442;13.284;2023-05-27T12:58:12;24.70;6.10
67050;DHT22;53955;52.442;13.284;2023-05-27T13:00:39;24.70;6.30
67050;DHT22;53955;52.442;13.284;2023-05-27T13:03:06;24.80;6.30
67050;DHT22;53955;52.442;13.284;2023-05-27T13:05:34;24.80;5.70
67050;DHT22;53955;52.442;13.284;2023-05-27T13:08:02;24.80;6.30
67050;DHT22;53955;52.442;13.284;2023-05-27T13:10:30;24.70;5.50
67050;DHT22;53955;52.442;13.284;2023-05-27T13:12:58;24.80;6.30
67050;DHT22;53955;52.442;13.284;2023-05-27T13:15:25;24.80;6.50
67050;DHT22;53955;52.442;13.284;2023-05-27T13:17:52;24.90;5.30
67050;DHT22;53955;52.442;13.284;2023-05-27T13:20:20;24.90;6.80
67050;DHT22;53955;52.442;13.284;2023-05-27T13:22:49;24.90;7.00
67050;DHT22;53955;52.442;13.284;2023-05-27T13:25:16;24.90;6.40
67050;DHT22;53955;52.442;13.284;2023-05-27T13:27:43;24.90;5.70
67050;DHT22;53955;52.442;13.284;2023-05-27T13:30:12;24.90;5.50
67050;DHT22;53955;52.442;13.284;2023-05-27T13:32:39;24.80;5.70
67050;DHT22;53955;52.442;13.284;2023-05-27T13:35:06;24.70;6.80
67050;DHT22;53955;52.442;13.284;2023-05-27T13:37:33;24.20;5.60
67050;DHT22;53955;52.442;13.284;2023-05-27T13:40:01;24.40;6.40
67050;DHT22;53955;52.442;13.284;2023-05-27T13:42:28;24.50;6.50
67050;DHT22;53955;52.442;13.284;2023-05-27T13:44:54;24.30;4.60
67050;DHT22;53955;52.442;13.284;2023-05-27T13:47:21;23.90;5.30
67050;DHT22;53955;52.442;13.284;2023-05-27T13:49:48;24.20;7.50
67050;DHT22;53955;52.442;13.284;2023-05-27T13:52:14;24.50;6.80
67050;DHT22;53955;52.442;13.284;2023-05-27T13:54:42;24.70;6.00
67050;DHT22;53955;52.442;13.284;2023-05-27T13:57:10;24.80;4.90
67050;DHT22;53955;52.442;13.284;2023-05-27T13:59:36;25.00;4.30
67050;DHT22;53955;52.442;13.284;2023-05-27T14:02:03;24.70;4.70
67050;DHT22;53955;52.442;13.284;2023-05-27T14:04:31;24.80;5.60
67050;DHT22;53955;52.442;13.284;2023-05-27T14:06:58;24.90;6.10
67050;DHT22;53955;52.442;13.284;2023-05-27T14:09:24;24.80;5.60
67050;DHT22;53955;52.442;13.284;2023-05-27T14:11:51;24.80;6.20
67050;DHT22;53955;52.442;13.284;2023-05-27T14:14:19;24.90;6.40
67050;DHT22;53955;52.442;13.284;2023-05-27T14:16:45;25.00;5.40
67050;DHT22;53955;52.442;13.284;2023-05-27T14:19:13;25.10;5.50
67050;DHT22;53955;52.442;13.284;2023-05-27T14:21:39;25.00;4.60
67050;DHT22;53955;52.442;13.284;2023-05-27T14:24:06;24.90;5.30
67050;DHT22;53955;52.442;13.284;2023-05-27T14:26:33;25.00;5.80
67050;DHT22;53955;52.442;13.284;2023-05-27T14:28:59;25.20;5.10
67050;DHT22;53955;52.442;13.284;2023-05-27T14:31:27;25.10;4.60
67050;DHT22;53955;52.442;13.284;2023-05-27T14:33:54;24.80;4.40
67050;DHT22;53955;52.442;13.284;2023-05-27T14:36:20;24.60;5.30
67050;DHT22;53955;52.442;13.284;2023-05-27T14:38:47;24.50;4.80
67050;DHT22;53955;52.442;13.284;2023-05-27T14:41:14;24.50;5.00
67050;DHT22;53955;52.442;13.284;2023-05-27T14:43:40;24.60;4.90
67050;DHT22;53955;52.442;13.284;2023-05-27T14:46:07;24.60;5.20
67050;DHT22;53955;52.442;13.284;2023-05-27T14:48:35;24.70;6.60
67050;DHT22;53955;52.442;13.284;2023-05-27T14:51:01;24.90;5.60
67050;DHT22;53955;52.442;13.284;2023-05-27T14:53:28;25.10;5.90
67050;DHT22;53955;52.442;13.284;2023-05-27T14:55:55;25.20;5.40
67050;DHT22;53955;52.442;13.284;2023-05-27T14:58:21;25.00;5.90
67050;DHT22;53955;52.442;13.284;2023-05-27T15:00:48;25.10;4.30
67050;DHT22;53955;52.442;13.284;2023-05-27T15:03:14;25.10;4.60
67050;DHT22;53955;52.442;13.284;2023-05-27T15:05:42;24.90;4.40
67050;DHT22;53955;52.442;13.284;2023-05-27T15:08:09;24.80;4.10
67050;DHT22;53955;52.442;13.284;2023-05-27T15:10:41;24.80;4.70
67050;DHT22;53955;52.442;13.284;2023-05-27T15:13:08;24.90;4.70
67050;DHT22;53955;52.442;13.284;2023-05-27T15:15:35;24.80;4.10
67050;DHT22;53955;52.442;13.284;2023-05-27T15:18:04;24.30;4.90
67050;DHT22;53955;52.442;13.284;2023-05-27T15:20:31;24.40;5.60
67050;DHT22;53955;52.442;13.284;2023-05-27T15:22:59;24.60;5.10